Time;durP1;ratioP1;P1;durP2;ratioP2;P2;SDS_P1;SDS_P2;PMS_P1;PMS_P2;Temp;Humidity;BMP_temperature;BMP_pressure;BME280_temperature;BME280_humidity;BME280_pressure;Samples;Min_cycle;Max_cycle;Signal;HPM_P1;HPM_P2
2023/04/21 00:00:56;;;;;;;32.25;25.38;;;;;;;7.61;100.00;162555.88;5070852;28;20169;-61
2023/04/21 00:03:22;;;;;;;32.75;25.25;;;;;;;7.65;100.00;162565.31;5072817;28;20025;-60
2023/04/21 00:05:49;;;;;;;44.28;25.25;;;;;;;7.67;100.00;162569.31;5070728;28;20044;-60
2023/04/21 00:08:15;;;;;;;34.63;24.98;;;;;;;7.70;100.00;162578.75;5072404;28;20060;-61
2023/04/21 00:10:41;;;;;;;31.52;23.02;;;;;;;7.69;100.00;162574.72;5071054;28;20177;-61
2023/04/21 00:13:06;;;;;;;36.28;25.08;;;;;;;7.71;100.00;162581.47;5071820;28;20422;-61
2023/04/21 00:15:31;;;;;;;33.20;26.33;;;;;;;7.77;100.00;162596.28;5070936;28;20043;-60
2023/04/21 00:17:57;;;;;;;32.95;25.90;;;;;;;7.77;100.00;162596.28;5072120;28;20033;-60
2023/04/21 00:20:25;;;;;;;30.92;25.08;;;;;;;7.78;100.00;162599.00;5070319;28;20094;-61
2023/04/21 00:22:55;;;;;;;35.60;25.53;;;;;;;7.81;100.00;162607.06;5072649;28;20029;-61
2023/04/21 00:25:21;;;;;;;32.72;25.02;;;;;;;7.82;100.00;162609.75;5070693;28;20500;-60
2023/04/21 00:27:46;;;;;;;30.58;24.35;;;;;;;7.88;100.00;162624.59;5071666;28;20021;-61
2023/04/21 00:30:11;;;;;;;30.38;23.83;;;;;;;7.93;100.00;162639.38;5070132;28;20037;-61
2023/04/21 00:32:37;;;;;;;34.13;24.98;;;;;;;7.90;100.00;162631.31;5072079;28;20028;-61
2023/04/21 00:35:03;;;;;;;30.52;23.40;;;;;;;7.97;100.00;162647.47;5070025;28;20048;-61
2023/04/21 00:37:28;;;;;;;32.78;24.77;;;;;;;8.02;100.00;162660.94;5071728;28;20469;-62
2023/04/21 00:39:53;;;;;;;32.58;24.23;;;;;;;8.06;100.00;162671.75;5070351;28;20106;-62
2023/04/21 00:42:19;;;;;;;34.58;26.17;;;;;;;8.11;100.00;162685.19;5071568;28;20019;-62
2023/04/21 00:44:44;;;;;;;33.17;24.00;;;;;;;8.14;100.00;162693.31;5070045;28;20033;-62
2023/04/21 00:47:10;;;;;;;28.40;23.90;;;;;;;8.17;100.00;162701.38;5071806;28;20089;-62
2023/04/21 00:49:35;;;;;;;32.30;26.15;;;;;;;8.17;100.00;162701.38;5070458;28;20040;-63
2023/04/21 00:52:03;;;;;;;36.45;26.60;;;;;;;8.21;100.00;162710.81;5070893;28;20024;-62
2023/04/21 00:54:29;;;;;;;30.38;24.40;;;;;;;8.28;100.00;162728.34;5070144;28;20047;-62
2023/04/21 00:56:57;;;;;;;33.15;26.10;;;;;;;8.27;100.00;162726.97;5071381;28;20020;-62
2023/04/21 00:59:22;;;;;;;35.65;24.63;;;;;;;8.31;100.00;162736.41;5069965;28;20055;-62
2023/04/21 01:01:48;;;;;;;36.30;26.38;;;;;;;8.32;100.00;162739.09;5079150;28;20016;-61
2023/04/21 01:04:13;;;;;;;29.73;24.33;;;;;;;8.37;100.00;162752.63;5089891;28;20511;-61
2023/04/21 01:06:40;;;;;;;37.25;27.58;;;;;;;8.39;100.00;162759.34;5091294;28;20108;-61
2023/04/21 01:09:06;;;;;;;36.42;24.80;;;;;;;8.40;100.00;162760.69;5089150;28;20028;-61
2023/04/21 01:11:31;;;;;;;30.67;26.38;;;;;;;8.40;100.00;162760.69;5091678;28;20390;-61
2023/04/21 01:13:57;;;;;;;27.75;23.83;;;;;;;8.41;100.00;162763.38;5089793;28;20027;-62
2023/04/21 01:16:23;;;;;;;32.92;24.13;;;;;;;8.43;100.00;162768.78;5091668;28;20560;-61
2023/04/21 01:18:49;;;;;;;30.33;25.83;;;;;;;8.39;100.00;162759.34;5089736;28;20031;-61
2023/04/21 01:21:15;;;;;;;31.30;24.10;;;;;;;8.40;100.00;162760.69;5088786;28;20153;-62
2023/04/21 01:23:41;;;;;;;33.42;25.67;;;;;;;8.44;100.00;162771.50;5091470;28;20107;-61
2023/04/21 01:26:06;;;;;;;32.50;25.52;;;;;;;8.33;100.00;162741.81;5089708;28;20059;-61
2023/04/21 01:28:32;;;;;;;38.63;26.13;;;;;;;8.43;100.00;162768.78;5090541;28;20037;-62
2023/04/21 01:30:57;;;;;;;36.08;24.90;;;;;;;8.44;100.00;162770.13;5089759;28;20040;-62
2023/04/21 01:33:23;;;;;;;37.58;25.63;;;;;;;8.44;100.00;162771.50;5091298;28;20024;-61
2023/04/21 01:35:49;;;;;;;32.85;24.70;;;;;;;8.37;100.00;162752.63;5087851;28;20032;-61
2023/04/21 01:38:17;;;;;;;31.70;25.05;;;;;;;8.47;100.00;162778.28;5070572;28;20047;-60
2023/04/21 01:40:47;;;;;;;37.70;27.25;;;;;;;8.44;100.00;162770.13;5069471;28;20133;-61
2023/04/21 01:43:15;;;;;;;31.85;25.40;;;;;;;8.42;100.00;162766.09;5070271;28;20444;-61
2023/04/21 01:45:40;;;;;;;35.58;28.35;;;;;;;8.40;100.00;162760.69;5069345;28;20038;-62
2023/04/21 01:48:06;;;;;;;30.25;24.67;;;;;;;8.40;100.00;162762.06;5070132;28;20028;-62
2023/04/21 01:50:31;;;;;;;37.90;28.00;;;;;;;8.42;100.00;162766.09;5068388;28;20039;-61
2023/04/21 01:52:56;;;;;;;32.83;27.27;;;;;;;8.44;100.00;162771.50;5070469;28;20028;-61
2023/04/21 01:55:22;;;;;;;33.78;27.95;;;;;;;8.46;100.00;162776.84;5069417;28;20041;-62
2023/04/21 01:57:47;;;;;;;39.15;26.05;;;;;;;8.45;100.00;162772.81;5070454;28;20020;-62
2023/04/21 02:00:13;;;;;;;33.08;25.67;;;;;;;8.47;100.00;162779.59;5069273;28;20534;-62
2023/04/21 02:02:38;;;;;;;31.50;27.98;;;;;;;8.48;100.00;162782.28;5070731;28;20535;-62
2023/04/21 02:05:04;;;;;;;37.47;29.63;;;;;;;8.40;100.00;162762.06;5068658;28;20037;-62
2023/04/21 02:07:29;;;;;;;33.88;24.65;;;;;;;8.50;100.00;162786.31;5070448;28;20029;-62
2023/04/21 02:09:55;;;;;;;33.13;26.00;;;;;;;8.49;100.00;162785.00;5068919;28;20048;-62
2023/04/21 02:12:20;;;;;;;39.22;26.48;;;;;;;8.49;100.00;162785.00;5070308;28;20025;-62
2023/04/21 02:14:47;;;;;;;34.80;25.33;;;;;;;8.52;100.00;162793.09;5069239;28;20056;-62
2023/04/21 02:17:13;;;;;;;29.40;24.83;;;;;;;8.54;100.00;162798.47;5070346;28;20430;-63
2023/04/21 02:19:38;;;;;;;35.83;26.80;;;;;;;8.56;100.00;162803.88;5068861;28;20041;-62
2023/04/21 02:22:06;;;;;;;36.08;25.77;;;;;;;8.59;100.00;162809.28;5070106;28;20049;-62
2023/04/21 02:24:31;;;;;;;32.97;27.35;;;;;;;8.57;100.00;162806.56;5068933;28;20048;-64
2023/04/21 02:26:57;;;;;;;30.02;25.98;;;;;;;8.54;100.00;162797.16;5069863;28;20471;-64
2023/04/21 02:29:22;;;;;;;36.35;28.25;;;;;;;8.53;100.00;162795.75;5068816;28;20446;-64
2023/04/21 02:31:48;;;;;;;35.60;26.98;;;;;;;8.51;100.00;162790.41;5070167;28;20033;-63
2023/04/21 02:34:13;;;;;;;37.17;27.83;;;;;;;8.57;100.00;162806.56;5068439;28;20506;-64
2023/04/21 02:36:38;;;;;;;33.33;26.20;;;;;;;8.57;100.00;162806.56;5070397;28;20027;-64
2023/04/21 02:39:04;;;;;;;30.25;26.08;;;;;;;8.57;100.00;162806.56;5068608;28;20376;-63
2023/04/21 02:41:29;;;;;;;35.42;29.10;;;;;;;8.47;100.00;162779.59;5069702;28;20043;-63
2023/04/21 02:43:54;;;;;;;35.33;26.73;;;;;;;8.61;100.00;162814.63;5068488;28;20024;-63
2023/04/21 02:46:20;;;;;;;33.17;28.05;;;;;;;8.61;100.00;162814.63;5069975;28;20021;-60
2023/04/21 02:48:45;;;;;;;32.47;26.50;;;;;;;8.60;100.00;162811.97;5069598;28;20032;-63
2023/04/21 02:51:12;;;;;;;32.13;26.33;;;;;;;8.65;100.00;162826.78;5068200;28;20047;-63
2023/04/21 02:53:38;;;;;;;28.92;24.27;;;;;;;8.70;100.00;162838.91;5070368;28;20021;-62
2023/04/21 02:56:03;;;;;;;30.38;26.80;;;;;;;8.72;100.00;162844.31;5067975;28;20077;-62
2023/04/21 02:58:29;;;;;;;31.42;25.65;;;;;;;8.60;100.00;162813.31;5070327;28;20056;-62
2023/04/21 03:00:55;;;;;;;37.65;28.75;;;;;;;8.54;100.00;162798.47;5070290;28;20128;-63
2023/04/21 03:03:20;;;;;;;34.40;29.00;;;;;;;8.44;100.00;162771.50;5073087;28;20035;-63
2023/04/21 03:05:45;;;;;;;37.55;29.70;;;;;;;8.34;100.00;162744.50;5071959;28;20044;-63
2023/04/21 03:08:11;;;;;;;44.15;30.48;;;;;;;8.23;100.00;162717.53;5073292;28;20033;-61
2023/04/21 03:10:37;;;;;;;38.45;30.05;;;;;;;8.10;100.00;162682.50;5071568;28;20534;-62
2023/04/21 03:13:02;;;;;;;42.88;31.70;;;;;;;8.06;100.00;162671.75;5073119;28;20437;-61
2023/04/21 03:15:28;;;;;;;42.80;34.30;;;;;;;8.02;100.00;162660.94;5072086;28;20048;-61
2023/04/21 03:17:53;;;;;;;48.47;35.45;;;;;;;7.91;100.00;162634.00;5073121;28;20716;-61
2023/04/21 03:20:19;;;;;;;40.50;32.05;;;;;;;7.86;100.00;162620.50;5071303;28;20037;-60
2023/04/21 03:22:44;;;;;;;51.00;36.05;;;;;;;7.81;100.00;162607.06;5073106;28;20494;-61
2023/04/21 03:25:10;;;;;;;47.22;35.13;;;;;;;7.79;100.00;162601.66;5071192;28;20059;-61
2023/04/21 03:27:36;;;;;;;47.10;36.75;;;;;;;7.76;100.00;162594.91;5073167;28;20024;-61
2023/04/21 03:30:01;;;;;;;47.08;35.05;;;;;;;7.73;100.00;162585.47;5071616;28;20384;-62
2023/04/21 03:32:27;;;;;;;42.53;32.67;;;;;;;7.74;100.00;162589.50;5073426;28;20025;-61
2023/04/21 03:34:52;;;;;;;44.63;31.90;;;;;;;7.74;100.00;162588.19;5071315;28;20106;-62
2023/04/21 03:37:17;;;;;;;45.88;36.22;;;;;;;7.70;100.00;162578.75;5072775;28;20035;-62
2023/04/21 03:39:43;;;;;;;40.85;32.50;;;;;;;7.75;100.00;162590.88;5071254;28;20487;-63
2023/04/21 03:42:08;;;;;;;45.08;34.75;;;;;;;7.74;100.00;162588.19;5072239;28;20399;-63
2023/04/21 03:44:34;;;;;;;45.72;35.20;;;;;;;7.60;100.00;162551.78;5071333;28;20033;-61
2023/04/21 03:46:59;;;;;;;41.95;33.63;;;;;;;7.74;100.00;162589.50;5072488;28;20475;-61
2023/04/21 03:49:24;;;;;;;47.50;35.65;;;;;;;7.76;100.00;162593.59;5070959;28;20048;-65
2023/04/21 03:51:50;;;;;;;45.47;34.65;;;;;;;7.76;100.00;162594.91;5072687;28;20510;-64
2023/04/21 03:54:15;;;;;;;45.85;34.47;;;;;;;7.79;100.00;162601.66;5071128;28;20094;-65
2023/04/21 03:56:40;;;;;;;52.47;37.00;;;;;;;7.79;100.00;162601.66;5072424;28;20358;-65
2023/04/21 03:59:06;;;;;;;47.00;32.35;;;;;;;7.79;100.00;162601.66;5070950;28;20102;-65
2023/04/21 04:01:33;;;;;;;40.13;33.53;;;;;;;7.82;100.00;162609.75;5072621;28;20017;-65
2023/04/21 04:03:58;;;;;;;47.88;35.75;;;;;;;7.84;100.00;162615.16;5070071;28;20034;-64
2023/04/21 04:06:24;;;;;;;45.08;36.67;;;;;;;7.87;100.00;162621.88;5072619;28;20379;-65
2023/04/21 04:08:49;;;;;;;44.13;33.53;;;;;;;7.89;100.00;162628.63;5072490;28;20020;-64
2023/04/21 04:11:14;;;;;;;45.80;34.55;;;;;;;7.93;100.00;162638.03;5069777;28;20090;-62
2023/04/21 04:13:40;;;;;;;45.55;32.80;;;;;;;7.95;100.00;162643.44;5080086;28;20478;-59
2023/04/21 04:16:05;;;;;;;46.65;34.15;;;;;;;7.99;100.00;162654.19;5090174;28;20081;-59
2023/04/21 04:18:31;;;;;;;43.78;32.70;;;;;;;8.02;100.00;162660.94;5088081;28;20028;-60
2023/04/21 04:20:56;;;;;;;41.35;32.13;;;;;;;8.08;100.00;162677.09;5070161;28;20071;-59
2023/04/21 04:23:21;;;;;;;51.20;36.72;;;;;;;8.10;100.00;162682.50;5086916;28;20074;-59
2023/04/21 04:25:48;;;;;;;49.40;40.28;;;;;;;8.15;100.00;162696.00;5090336;28;20533;-59
2023/04/21 04:28:14;;;;;;;62.60;48.20;;;;;;;8.18;100.00;162704.06;5091834;28;20705;-59
2023/04/21 04:30:39;;;;;;;43.08;37.50;;;;;;;8.23;100.00;162717.53;5090557;28;20044;-58
2023/04/21 04:33:05;;;;;;;44.70;33.60;;;;;;;8.29;100.00;162731.03;5079413;28;20025;-59
2023/04/21 04:35:30;;;;;;;57.30;46.25;;;;;;;8.30;100.00;162733.75;5075406;28;20040;-59
2023/04/21 04:37:56;;;;;;;42.17;31.75;;;;;;;8.32;100.00;162739.09;5090027;28;20128;-60
2023/04/21 04:40:22;;;;;;;39.25;31.67;;;;;;;8.36;100.00;162749.91;5079633;28;20054;-61
2023/04/21 04:42:47;;;;;;;43.22;33.30;;;;;;;8.32;100.00;162739.09;5090706;28;20081;-61
2023/04/21 04:45:15;;;;;;;56.53;45.08;;;;;;;8.45;100.00;162774.13;5089921;28;20044;-61
2023/04/21 04:47:40;;;;;;;37.72;31.83;;;;;;;8.45;100.00;162774.13;5076294;28;20051;-60
2023/04/21 04:50:06;;;;;;;39.17;30.35;;;;;;;8.48;100.00;162782.28;5069721;28;20040;-62
2023/04/21 04:52:31;;;;;;;40.95;32.88;;;;;;;8.44;100.00;162771.50;5071259;28;20046;-59
2023/04/21 04:54:57;;;;;;;44.17;32.05;;;;;;;8.47;100.00;162778.28;5069363;28;20048;-58
2023/04/21 04:57:22;;;;;;;42.15;32.70;;;;;;;8.47;100.00;162779.59;5071758;28;20620;-59
2023/04/21 04:59:47;;;;;;;46.15;30.95;;;;;;;8.49;100.00;162785.00;5069740;28;20379;-58
2023/04/21 05:02:13;;;;;;;58.38;35.70;;;;;;;8.52;100.00;162793.09;5070686;28;20013;-58
2023/04/21 05:04:39;;;;;;;40.00;33.90;;;;;;;8.53;100.00;162795.75;5069819;28;20040;-58
2023/04/21 05:07:06;;;;;;;40.28;31.60;;;;;;;8.54;100.00;162798.47;5071000;28;20029;-58
2023/04/21 05:09:32;;;;;;;43.63;33.25;;;;;;;8.56;100.00;162802.53;5069474;28;20048;-59
2023/04/21 05:11:57;;;;;;;37.47;33.20;;;;;;;8.54;100.00;162798.47;5070852;28;20032;-58
2023/04/21 05:14:22;;;;;;;44.00;31.65;;;;;;;8.59;100.00;162809.28;5069475;28;20040;-58
2023/04/21 05:16:48;;;;;;;40.35;31.10;;;;;;;8.63;100.00;162820.03;5070780;28;20031;-58
2023/04/21 05:19:13;;;;;;;41.42;31.42;;;;;;;8.66;100.00;162829.47;5069323;28;20044;-58
2023/04/21 05:21:39;;;;;;;44.75;31.77;;;;;;;8.68;100.00;162833.50;5070899;28;20066;-59
2023/04/21 05:24:04;;;;;;;34.90;28.85;;;;;;;8.66;100.00;162828.16;5068442;28;20459;-58
2023/04/21 05:26:30;;;;;;;36.70;32.10;;;;;;;8.66;100.00;162828.16;5071090;28;20035;-59
2023/04/21 05:28:56;;;;;;;41.10;31.58;;;;;;;8.65;100.00;162826.78;5069375;28;20028;-59
2023/04/21 05:31:22;;;;;;;39.28;31.80;;;;;;;8.66;100.00;162828.16;5070698;28;20032;-59
2023/04/21 05:33:48;;;;;;;36.60;31.48;;;;;;;8.66;100.00;162828.16;5069353;28;20016;-57
2023/04/21 05:36:13;;;;;;;41.50;32.10;;;;;;;8.66;100.00;162828.16;5070976;28;20508;-58
2023/04/21 05:38:39;;;;;;;37.55;30.95;;;;;;;8.67;100.00;162832.19;5070717;28;20460;-58
2023/04/21 05:41:04;;;;;;;34.65;29.60;;;;;;;8.74;100.00;162849.72;5069157;28;20036;-59
2023/04/21 05:43:32;;;;;;;42.35;32.33;;;;;;;8.74;100.00;162849.72;5070522;28;20434;-58
2023/04/21 05:45:58;;;;;;;41.65;32.92;;;;;;;8.73;100.00;162847.03;5068753;28;20044;-58
2023/04/21 05:48:23;;;;;;;47.10;36.15;;;;;;;8.75;100.00;162852.38;5071175;28;20069;-59
2023/04/21 05:50:49;;;;;;;68.47;51.78;;;;;;;8.76;100.00;162853.75;5068962;28;20533;-58
2023/04/21 05:53:14;;;;;;;45.10;32.20;;;;;;;8.76;100.00;162855.09;5070155;28;20032;-59
2023/04/21 05:55:39;;;;;;;40.50;34.03;;;;;;;8.62;100.00;162818.72;5069269;28;20032;-59
2023/04/21 05:58:05;;;;;;;49.28;35.80;;;;;;;8.80;100.00;162864.53;5070431;28;20376;-58
2023/04/21 06:00:30;;;;;;;48.00;37.13;;;;;;;8.80;100.00;162864.53;5069285;28;20040;-58
2023/04/21 06:02:55;;;;;;;55.88;43.70;;;;;;;8.78;100.00;162860.50;5070299;28;20032;-59
2023/04/21 06:05:21;;;;;;;107.13;69.15;;;;;;;8.73;100.00;162847.03;5068854;28;20045;-59
2023/04/21 06:07:46;;;;;;;45.83;35.40;;;;;;;8.75;100.00;162852.38;5070725;28;20579;-58
2023/04/21 06:10:13;;;;;;;45.50;33.20;;;;;;;8.73;100.00;162847.03;5068722;28;20048;-59
2023/04/21 06:12:38;;;;;;;53.92;36.78;;;;;;;8.78;100.00;162859.16;5070774;28;20036;-58
2023/04/21 06:15:04;;;;;;;51.25;37.65;;;;;;;8.77;100.00;162857.78;5068816;28;20048;-59
2023/04/21 06:17:29;;;;;;;62.03;38.35;;;;;;;8.79;100.00;162861.81;5070458;28;20510;-59
2023/04/21 06:19:54;;;;;;;48.90;38.83;;;;;;;8.84;100.00;162875.34;5068821;28;20518;-57
2023/04/21 06:22:23;;;;;;;43.47;37.15;;;;;;;8.85;100.00;162879.38;5070390;28;20047;-58
2023/04/21 06:24:49;;;;;;;48.50;41.63;;;;;;;8.86;100.00;162882.06;5068158;28;20042;-58
2023/04/21 06:27:14;;;;;;;42.45;34.95;;;;;;;8.85;100.00;162879.38;5070271;28;20020;-58
2023/04/21 06:29:43;;;;;;;48.50;36.90;;;;;;;8.89;100.00;162890.19;5069127;28;20423;-58
2023/04/21 06:32:09;;;;;;;47.55;38.47;;;;;;;8.94;100.00;162900.94;5069694;28;20043;-58
2023/04/21 06:34:35;;;;;;;40.28;34.40;;;;;;;9.01;100.00;162919.81;5068917;28;20463;-58
2023/04/21 06:37:00;;;;;;;44.08;35.03;;;;;;;9.04;100.00;162927.94;5074246;28;20028;-59
2023/04/21 06:39:26;;;;;;;43.08;34.45;;;;;;;9.08;100.00;162938.69;5073785;28;20013;-58
2023/04/21 06:41:51;;;;;;;40.17;33.58;;;;;;;9.11;100.00;162945.44;5072576;28;20044;-59
2023/04/21 06:44:17;;;;;;;46.17;32.50;;;;;;;9.15;100.00;162956.25;5073669;28;20422;-58
2023/04/21 06:46:42;;;;;;;38.95;33.80;;;;;;;9.15;100.00;162957.56;5072443;28;20032;-58
2023/04/21 06:49:08;;;;;;;42.25;33.83;;;;;;;9.14;100.00;162954.88;5073799;28;20036;-58
2023/04/21 06:51:33;;;;;;;44.70;35.70;;;;;;;9.13;100.00;162952.16;5072564;28;20109;-58
2023/04/21 06:54:00;;;;;;;39.55;34.72;;;;;;;9.14;100.00;162954.88;5073317;28;20024;-58
2023/04/21 06:56:26;;;;;;;42.22;34.60;;;;;;;9.20;100.00;162971.03;5072437;28;20514;-58
2023/04/21 06:58:51;;;;;;;35.35;29.63;;;;;;;9.22;100.00;162975.13;5073865;28;20460;-59
2023/04/21 07:01:17;;;;;;;40.33;30.52;;;;;;;9.22;100.00;162975.13;5071827;28;20037;-59
2023/04/21 07:03:42;;;;;;;40.72;32.08;;;;;;;9.23;100.00;162976.44;5074064;28;20028;-59
2023/04/21 07:06:07;;;;;;;37.50;33.05;;;;;;;9.19;100.00;162968.38;5071812;28;20437;-58
2023/04/21 07:08:33;;;;;;;39.40;33.25;;;;;;;9.28;100.00;162991.31;5073432;28;20016;-58
2023/04/21 07:10:58;;;;;;;38.60;30.52;;;;;;;9.26;100.00;162985.91;5071787;28;20431;-58
2023/04/21 07:13:23;;;;;;;37.60;31.02;;;;;;;9.30;100.00;162996.72;5073726;28;20043;-58
2023/04/21 07:15:49;;;;;;;41.55;31.95;;;;;;;9.36;100.00;163011.50;5071799;28;20044;-58
2023/04/21 07:18:14;;;;;;;46.42;33.30;;;;;;;9.43;100.00;163030.38;5073473;28;20142;-58
2023/04/21 07:20:39;;;;;;;38.50;30.20;;;;;;;9.52;100.00;163054.69;5071870;28;20048;-59
2023/04/21 07:23:05;;;;;;;37.92;30.45;;;;;;;9.56;100.00;163064.13;5070281;28;20063;-58
2023/04/21 07:25:30;;;;;;;44.45;31.52;;;;;;;9.58;100.00;163068.16;5070496;28;20033;-58
2023/04/21 07:27:56;;;;;;;36.80;29.10;;;;;;;9.65;100.00;163087.03;5073260;28;20033;-58
2023/04/21 07:30:21;;;;;;;37.42;29.70;;;;;;;9.71;100.00;163101.91;5071488;28;20507;-58
2023/04/21 07:32:47;;;;;;;34.45;30.90;;;;;;;9.86;100.00;163141.03;5073155;28;20035;-59
2023/04/21 07:35:12;;;;;;;35.17;30.35;;;;;;;9.94;100.00;163162.63;5071212;28;20037;-58
2023/04/21 07:37:39;;;;;;;41.92;32.97;;;;;;;10.00;100.00;163178.81;5073032;28;20024;-58
2023/04/21 07:40:06;;;;;;;39.10;30.02;;;;;;;9.90;100.00;163151.81;5071377;28;20098;-58
2023/04/21 07:42:31;;;;;;;35.13;31.33;;;;;;;10.13;100.00;163213.88;5072972;28;20205;-59
2023/04/21 07:44:56;;;;;;;38.33;29.63;;;;;;;10.27;100.00;163248.97;5070697;28;20491;-59
2023/04/21 07:47:22;;;;;;;37.08;29.83;;;;;;;10.38;100.00;163278.72;5071638;28;20043;-58
2023/04/21 07:49:47;;;;;;;37.40;30.65;;;;;;;10.52;100.00;163315.13;5071460;28;20115;-59
2023/04/21 07:52:12;;;;;;;32.78;27.85;;;;;;;10.53;100.00;163316.53;5071965;28;20029;-58
2023/04/21 07:54:38;;;;;;;37.85;27.90;;;;;;;10.47;100.00;163301.66;5071382;28;20051;-58
2023/04/21 07:57:03;;;;;;;33.13;27.13;;;;;;;10.59;100.00;163334.03;5072560;28;20020;-58
2023/04/21 07:59:29;;;;;;;34.05;25.30;;;;;;;10.71;100.00;163365.09;5071102;28;20035;-58
2023/04/21 08:01:54;;;;;;;33.70;27.75;;;;;;;10.82;100.00;163392.09;5072623;28;20051;-59
2023/04/21 08:04:19;;;;;;;31.48;25.50;;;;;;;10.97;100.00;163432.63;5071217;28;20040;-59
2023/04/21 08:06:45;;;;;;;39.80;27.10;;;;;;;11.03;100.00;163448.81;5072623;28;20074;-58
2023/04/21 08:09:10;;;;;;;32.70;27.60;;;;;;;11.35;100.00;163531.16;5071106;28;20040;-59
2023/04/21 08:11:36;;;;;;;36.97;27.60;;;;;;;11.46;100.00;163560.91;5072421;28;20025;-59
2023/04/21 08:14:02;;;;;;;29.23;25.67;;;;;;;11.70;100.00;163624.38;5070631;28;20031;-59
2023/04/21 08:16:28;;;;;;;34.17;25.70;;;;;;;12.01;100.00;163704.09;5072625;28;20033;-59
2023/04/21 08:18:53;;;;;;;27.42;22.35;;;;;;;12.15;100.00;163741.91;5071400;28;20032;-58
2023/04/21 08:21:19;;;;;;;29.88;22.45;;;;;;;12.20;100.00;163755.47;5071539;28;20044;-58
2023/04/21 08:23:44;;;;;;;30.10;23.08;;;;;;;12.13;100.00;163735.16;5072336;28;20025;-58
2023/04/21 08:26:09;;;;;;;26.95;23.15;;;;;;;12.17;100.00;163746.00;5070688;28;20522;-58
2023/04/21 08:28:35;;;;;;;25.70;22.02;;;;;;;12.21;100.00;163756.78;5072169;28;20380;-58
2023/04/21 08:31:01;;;;;;;26.52;22.00;;;;;;;12.22;100.00;163760.84;5070201;28;20032;-59
2023/04/21 08:33:26;;;;;;;27.98;22.23;;;;;;;12.19;100.00;163751.38;5072156;28;20024;-59
2023/04/21 08:35:52;;;;;;;30.20;22.67;;;;;;;12.12;100.00;163732.47;5070518;28;20044;-59
2023/04/21 08:38:17;;;;;;;26.02;23.00;;;;;;;12.09;100.00;163724.38;5071249;28;20373;-58
2023/04/21 08:40:43;;;;;;;26.95;21.95;;;;;;;12.18;100.00;163748.66;5070583;28;20055;-58
2023/04/21 08:43:08;;;;;;;27.20;21.80;;;;;;;12.31;100.00;163783.84;5071546;28;20020;-58
2023/04/21 08:45:34;;;;;;;23.75;19.92;;;;;;;12.34;100.00;163791.91;5067838;28;20107;-58
2023/04/21 08:48:00;;;;;;;26.58;18.95;;;;;;;12.22;100.00;163759.50;5070300;28;20020;-58
2023/04/21 08:50:29;;;;;;;25.70;22.95;;;;;;;12.32;100.00;163786.50;5070243;28;20119;-58
2023/04/21 08:52:55;;;;;;;30.00;23.00;;;;;;;12.48;100.00;163827.03;5071512;28;20028;-58
2023/04/21 08:55:31;;;;;;;47.53;22.23;;;;;;;12.64;100.00;163870.28;5070221;28;20043;-58
2023/04/21 08:57:57;;;;;;;29.42;21.17;;;;;;;12.80;100.00;163912.22;5071152;28;20028;-58
2023/04/21 09:00:23;;;;;;;32.15;24.00;;;;;;;12.82;100.00;163917.59;5069868;28;20040;-58
2023/04/21 09:02:53;;;;;;;30.10;21.52;;;;;;;12.72;100.00;163890.59;5071408;28;20030;-58
2023/04/21 09:05:24;;;;;;;25.77;20.70;;;;;;;12.61;100.00;163860.84;5069826;28;20036;-58
2023/04/21 09:07:50;;;;;;;27.30;22.17;;;;;;;12.63;100.00;163867.59;5071027;28;20052;-58
2023/04/21 09:10:23;;;;;;;28.05;22.67;;;;;;;12.64;100.00;163870.28;5069703;28;20454;-58
2023/04/21 09:12:53;;;;;;;30.55;22.38;;;;;;;12.63;100.00;163867.59;5071621;28;20100;-58
2023/04/21 09:15:22;;;;;;;30.30;22.05;;;;;;;12.41;100.00;163809.50;5069291;28;20041;-58
2023/04/21 09:17:54;;;;;;;24.90;19.58;;;;;;;12.50;100.00;163833.84;5071455;28;20066;-58
2023/04/21 09:20:21;;;;;;;32.08;22.25;;;;;;;12.59;100.00;163856.78;5069548;28;20037;-57
2023/04/21 09:22:54;;;;;;;26.45;21.60;;;;;;;12.58;100.00;163854.09;5071063;28;20028;-58
2023/04/21 09:25:20;;;;;;;28.02;23.10;;;;;;;12.74;100.00;163894.63;5069085;28;20045;-57
2023/04/21 09:27:46;;;;;;;29.00;20.27;;;;;;;12.74;100.00;163895.97;5071054;28;20047;-58
2023/04/21 09:30:12;;;;;;;24.90;20.90;;;;;;;12.69;100.00;163883.84;5069230;28;20040;-58
2023/04/21 09:32:40;;;;;;;32.17;24.63;;;;;;;12.76;100.00;163900.06;5071155;28;20025;-58
2023/04/21 09:35:09;;;;;;;24.55;20.60;;;;;;;12.85;100.00;163924.34;5069420;28;20572;-58
2023/04/21 09:37:36;;;;;;;27.42;22.98;;;;;;;12.99;100.00;163960.88;5071083;28;20039;-58
2023/04/21 09:40:01;;;;;;;30.58;21.60;;;;;;;13.07;100.00;163981.16;5069158;28;20036;-59
2023/04/21 09:42:31;;;;;;;31.88;22.85;;;;;;;13.13;100.00;163997.38;5071066;28;20020;-58
2023/04/21 09:44:56;;;;;;;30.77;22.60;;;;;;;13.28;100.00;164036.56;5068853;28;20051;-58
2023/04/21 09:47:22;;;;;;;33.42;23.58;;;;;;;13.43;100.00;164075.84;5070877;28;20020;-58
2023/04/21 09:49:51;;;;;;;32.65;22.08;;;;;;;13.53;100.00;164102.88;5069340;28;20036;-57
2023/04/21 09:52:20;;;;;;;24.27;19.95;;;;;;;13.62;100.00;164125.88;5070032;28;20610;-58
2023/04/21 09:54:50;;;;;;;29.52;21.52;;;;;;;13.76;100.00;164163.75;5069528;28;20062;-58
2023/04/21 09:57:24;;;;;;;24.67;20.45;;;;;;;13.72;100.00;164151.56;5070547;28;20483;-58
2023/04/21 09:59:55;;;;;;;27.35;20.10;;;;;;;13.74;100.00;164158.31;5069329;28;20036;-57
2023/04/21 10:02:24;;;;;;;29.55;20.40;;;;;;;13.75;100.00;164161.03;5070992;28;20040;-58
2023/04/21 10:04:49;;;;;;;29.00;21.70;;;;;;;13.82;100.00;164178.59;5068785;28;20035;-58
2023/04/21 10:07:15;;;;;;;34.45;20.50;;;;;;;13.84;100.00;164184.00;5070732;28;20032;-57
2023/04/21 10:09:44;;;;;;;25.30;18.55;;;;;;;13.91;100.00;164202.94;5067166;28;20037;-57
2023/04/21 10:12:11;;;;;;;29.05;20.90;;;;;;;14.06;100.00;164240.81;5080665;28;20483;-62
2023/04/21 10:14:37;;;;;;;25.05;22.48;;;;;;;14.28;100.00;164300.34;5076580;28;20121;-58
2023/04/21 10:17:03;;;;;;;22.67;19.20;;;;;;;14.36;100.00;164319.28;5075547;28;20545;-58
2023/04/21 10:19:34;;;;;;;23.67;19.40;;;;;;;14.30;100.00;164303.06;5072799;28;20033;-58
2023/04/21 10:21:59;;;;;;;28.98;19.58;;;;;;;14.41;100.00;164334.19;5074276;28;20053;-58
2023/04/21 10:24:29;;;;;;;36.08;19.65;;;;;;;14.38;100.00;164324.72;5093393;28;20035;-58
2023/04/21 10:27:01;;;;;;;27.80;19.45;;;;;;;14.39;100.00;164327.41;5076565;28;20044;-58
2023/04/21 10:29:31;;;;;;;23.52;20.95;;;;;;;14.58;100.00;164377.47;5089764;28;20040;-58
2023/04/21 10:31:57;;;;;;;22.08;16.70;;;;;;;14.69;100.00;164405.94;5094431;28;20039;-59
2023/04/21 10:34:25;;;;;;;28.25;20.75;;;;;;;14.73;100.00;164416.75;5092601;28;20028;-58
2023/04/21 10:36:53;;;;;;;23.58;18.35;;;;;;;14.60;100.00;164382.84;5094450;28;20032;-57
2023/04/21 10:39:37;;;;;;;34.75;18.98;;;;;;;14.63;100.00;164389.66;5092803;28;20032;-58
2023/04/21 10:42:11;;;;;;;25.25;19.55;;;;;;;14.51;100.00;164359.88;5094087;28;20031;-57
2023/04/21 10:44:41;;;;;;;30.60;21.42;;;;;;;14.48;100.00;164350.41;5092831;28;20669;-58
2023/04/21 10:47:06;;;;;;;24.35;17.83;;;;;;;14.47;100.00;164347.69;5094079;28;20028;-58
2023/04/21 10:49:37;;;;;;;24.60;19.80;;;;;;;14.37;100.00;164322.00;5092204;28;20074;-59
2023/04/21 10:52:04;;;;;;;27.00;20.08;;;;;;;14.41;100.00;164334.19;5094083;28;20023;-58
2023/04/21 10:54:40;;;;;;;25.25;18.98;;;;;;;14.20;100.00;164278.69;5093121;28;20123;-58
2023/04/21 10:57:10;;;;;;;27.08;20.10;;;;;;;14.22;100.00;164284.13;5093953;28;20028;-58
2023/04/21 10:59:36;;;;;;;27.98;21.30;;;;;;;14.20;100.00;164277.34;5092820;28;20057;-58
2023/04/21 11:02:03;;;;;;;29.10;19.13;;;;;;;14.22;100.00;164282.78;5094052;28;20527;-58